createdAt,value
2022-12-02T11:36:14.981Z,6.48
2022-12-02T11:38:47.453Z,6.60
2022-12-02T11:41:16.437Z,6.35
2022-12-02T11:43:56.433Z,6.42
2022-12-02T11:46:39.585Z,6.37
2022-12-02T11:49:22.876Z,6.36
2022-12-02T11:51:52.334Z,6.60
2022-12-02T11:54:20.489Z,6.48
2022-12-02T11:56:48.554Z,6.66
2022-12-02T11:59:26.046Z,6.81
2022-12-02T12:02:08.359Z,6.78
2022-12-02T12:04:36.300Z,6.51
2022-12-02T12:07:05.494Z,6.83
2022-12-02T12:09:33.572Z,7.07
2022-12-02T12:12:18.690Z,6.72
2022-12-02T12:14:57.951Z,6.68
2022-12-02T12:17:46.765Z,6.28
2022-12-02T12:20:46.235Z,6.51
2022-12-02T12:23:40.223Z,6.50
2022-12-02T12:26:09.260Z,6.54
2022-12-02T12:28:39.097Z,6.67
2022-12-02T12:31:08.399Z,6.50
2022-12-02T12:33:36.398Z,6.37
2022-12-02T12:36:04.303Z,6.39
2022-12-02T12:38:32.225Z,6.39
2022-12-02T12:41:01.481Z,6.41
2022-12-02T12:43:29.372Z,6.42
2022-12-02T12:45:57.379Z,6.49
2022-12-02T12:48:25.305Z,6.26
2022-12-02T12:50:53.268Z,6.26
2022-12-02T12:53:21.131Z,6.30
2022-12-02T12:55:49.528Z,6.33
2022-12-02T12:58:19.194Z,6.44
2022-12-02T13:00:46.984Z,6.35
2022-12-02T13:03:14.920Z,6.72
2022-12-02T13:05:42.828Z,6.84
2022-12-02T13:08:10.821Z,6.93
2022-12-02T13:10:38.737Z,6.75
2022-12-02T13:13:06.779Z,6.48
2022-12-02T13:15:36.630Z,6.74
2022-12-02T13:18:04.730Z,6.99
2022-12-02T13:20:32.724Z,6.75
2022-12-02T13:23:00.690Z,6.97
2022-12-02T13:25:28.535Z,6.99
2022-12-02T13:27:56.389Z,6.76
2022-12-02T13:30:24.730Z,6.63
2022-12-02T13:32:54.706Z,6.82
2022-12-02T13:35:23.084Z,6.95
2022-12-02T13:37:51.116Z,7.20
2022-12-02T13:40:19.980Z,7.33
2022-12-02T13:42:47.893Z,7.27
2022-12-02T13:45:15.820Z,7.14
2022-12-02T13:47:43.678Z,7.09
2022-12-02T13:50:13.340Z,7.09
2022-12-02T13:52:41.212Z,6.74
2022-12-02T13:55:10.041Z,6.89
2022-12-02T13:57:37.882Z,6.89
2022-12-02T14:00:07.101Z,6.92
2022-12-02T14:02:35.028Z,6.86
2022-12-02T14:05:07.729Z,6.74
2022-12-02T14:07:37.664Z,6.70
2022-12-02T14:10:06.916Z,6.65
2022-12-02T14:12:34.862Z,6.40
2022-12-02T14:15:02.863Z,6.45
2022-12-02T14:17:30.722Z,6.60
2022-12-02T14:19:58.596Z,6.49
2022-12-02T14:22:26.515Z,6.56
2022-12-02T14:24:56.555Z,6.68
2022-12-02T14:27:24.438Z,6.57
2022-12-02T14:29:52.334Z,6.58
2022-12-02T14:32:20.182Z,6.55
2022-12-02T14:34:48.059Z,6.64
2022-12-02T14:37:16.069Z,6.62
2022-12-02T14:39:43.964Z,6.50
2022-12-02T14:42:13.299Z,6.57
2022-12-02T14:44:41.172Z,6.50
2022-12-02T14:47:09.044Z,6.51
2022-12-02T14:49:47.653Z,6.54
2022-12-02T14:52:15.626Z,6.54
2022-12-02T14:54:43.523Z,6.59
2022-12-02T14:57:14.280Z,6.38
2022-12-02T14:59:43.766Z,6.77
2022-12-02T15:02:14.163Z,6.67
2022-12-02T15:04:42.269Z,6.76
2022-12-02T15:07:10.164Z,6.73
2022-12-02T15:09:38.062Z,6.59
2022-12-02T15:12:06.685Z,6.57
2022-12-02T15:14:34.586Z,6.34
2022-12-02T15:17:03.930Z,6.58
2022-12-02T15:19:31.901Z,6.49
2022-12-02T15:21:59.761Z,6.58
2022-12-02T15:24:27.626Z,6.53
2022-12-02T15:26:56.037Z,6.51
2022-12-02T15:29:24.376Z,6.13
2022-12-02T15:31:52.388Z,6.32
2022-12-02T15:34:21.825Z,6.25
2022-12-02T15:36:49.704Z,6.34
2022-12-02T15:39:17.568Z,6.35
2022-12-02T15:41:45.445Z,6.32
2022-12-02T15:44:13.369Z,6.25
2022-12-02T15:46:41.928Z,6.30
2022-12-02T15:49:09.891Z,6.38
2022-12-02T15:51:39.181Z,6.55
2022-12-02T15:54:07.107Z,6.38
2022-12-02T15:56:35.073Z,6.07
2022-12-02T15:59:03.651Z,6.06
2022-12-02T16:01:32.104Z,5.82
2022-12-02T16:04:00.222Z,6.31
2022-12-02T16:06:28.101Z,6.10
2022-12-02T16:08:57.323Z,6.40
2022-12-02T16:11:25.253Z,6.30
2022-12-02T16:13:53.595Z,6.41
2022-12-02T16:16:21.973Z,6.42
2022-12-02T16:18:50.075Z,6.32
2022-12-02T16:21:18.862Z,6.22
2022-12-02T16:23:46.712Z,6.30
2022-12-02T16:26:15.938Z,6.28
2022-12-02T16:28:45.901Z,5.97
